Time;durP1;ratioP1;P1;durP2;ratioP2;P2;SDS_P1;SDS_P2;PMS_P1;PMS_P2;Temp;Humidity;BMP_temperature;BMP_pressure;BME280_temperature;BME280_humidity;BME280_pressure;Samples;Min_cycle;Max_cycle;Signal;HPM_P1;HPM_P2
2022/09/01 00:02:10;;;;;;;6.53;3.08;;;;;;;-145.67;100.00;66521.78;4936486;28;20149;-66
2022/09/01 00:04:40;;;;;;;7.50;3.45;;;;;;;-145.67;100.00;66521.78;4941561;28;20038;-67
2022/09/01 00:07:06;;;;;;;6.05;3.20;;;;;;;-145.67;100.00;66521.78;4941862;28;20153;-66
2022/09/01 00:09:32;;;;;;;8.82;3.60;;;;;;;-145.67;100.00;66521.78;4943000;28;20150;-67
2022/09/01 00:11:57;;;;;;;6.68;3.25;;;;;;;-145.67;100.00;66521.78;4921130;28;20491;-67
2022/09/01 00:14:28;;;;;;;9.00;3.38;;;;;;;-145.67;100.00;66521.78;4941559;28;20035;-66
2022/09/01 00:16:57;;;;;;;8.40;3.30;;;;;;;-145.67;100.00;66521.78;4925444;28;20843;-67
2022/09/01 00:19:23;;;;;;;6.20;3.40;;;;;;;-145.67;100.00;66521.78;4940038;28;20054;-66
2022/09/01 00:21:51;;;;;;;5.47;3.15;;;;;;;-145.67;100.00;66521.78;4920488;28;20062;-67
2022/09/01 00:24:17;;;;;;;9.20;3.42;;;;;;;-145.67;100.00;66521.78;4921077;28;20026;-67
2022/09/01 00:26:43;;;;;;;9.15;3.33;;;;;;;-145.67;100.00;66521.78;4909161;28;20236;-67
2022/09/01 00:29:11;;;;;;;9.90;3.50;;;;;;;-145.67;100.00;66521.78;4925837;28;20794;-67
2022/09/01 00:31:37;;;;;;;5.32;3.40;;;;;;;-145.67;100.00;66521.78;4925455;28;20166;-67
2022/09/01 00:34:02;;;;;;;8.43;3.60;;;;;;;-145.67;100.00;66521.78;4919945;28;20038;-67
2022/09/01 00:36:28;;;;;;;6.25;3.80;;;;;;;-145.67;100.00;66521.78;4921048;28;20065;-68
2022/09/01 00:38:53;;;;;;;8.25;3.95;;;;;;;-145.67;100.00;66521.78;4942520;28;20051;-67
2022/09/01 00:41:21;;;;;;;4.75;3.65;;;;;;;-145.67;100.00;66521.78;4942075;28;20456;-67
2022/09/01 00:43:50;;;;;;;9.40;3.30;;;;;;;-145.67;100.00;66521.78;4937517;28;20043;-67
2022/09/01 00:46:21;;;;;;;9.20;3.28;;;;;;;-145.67;100.00;66521.78;4943973;28;20774;-67
2022/09/01 00:48:52;;;;;;;5.25;2.92;;;;;;;-145.67;100.00;66521.78;4946192;28;20098;-66
2022/09/01 00:51:17;;;;;;;9.45;3.65;;;;;;;-145.67;100.00;66521.78;4926663;28;20098;-66
2022/09/01 00:53:44;;;;;;;9.63;4.15;;;;;;;-145.67;100.00;66521.78;4947984;28;20235;-66
2022/09/01 00:56:11;;;;;;;5.32;3.22;;;;;;;-145.67;100.00;66521.78;4945005;28;20094;-67
2022/09/01 00:58:37;;;;;;;7.55;3.60;;;;;;;-145.67;100.00;66521.78;4925673;28;20114;-67
2022/09/01 01:01:05;;;;;;;7.10;3.65;;;;;;;-145.67;100.00;66521.78;4946944;28;20046;-67
2022/09/01 01:03:30;;;;;;;8.88;3.13;;;;;;;-145.67;100.00;66521.78;4923689;28;20130;-67
2022/09/01 01:05:57;;;;;;;6.85;3.67;;;;;;;-145.67;100.00;66521.78;4928507;28;20042;-67
2022/09/01 01:08:35;;;;;;;6.35;3.50;;;;;;;-145.67;100.00;66521.78;4944931;28;20035;-67
2022/09/01 01:11:02;;;;;;;6.75;3.40;;;;;;;-145.67;100.00;66521.78;4913724;28;20035;-67
2022/09/01 01:13:30;;;;;;;7.78;3.53;;;;;;;-145.67;100.00;66521.78;4929363;28;20075;-67
2022/09/01 01:15:58;;;;;;;10.43;3.60;;;;;;;-145.67;100.00;66521.78;4946701;28;20534;-67
2022/09/01 01:18:23;;;;;;;5.97;3.67;;;;;;;-145.67;100.00;66521.78;4943973;28;20068;-66
2022/09/01 01:23:57;;;;;;;7.38;3.78;;;;;;;-145.67;100.00;66521.78;4945701;28;20035;-68
2022/09/01 01:26:22;;;;;;;9.15;3.58;;;;;;;-145.67;100.00;66521.78;4928457;28;20047;-66
2022/09/01 01:28:48;;;;;;;7.13;3.65;;;;;;;-145.67;100.00;66521.78;4945970;28;20118;-67
2022/09/01 01:31:17;;;;;;;5.78;3.80;;;;;;;-145.67;100.00;66521.78;4945996;28;20203;-66
2022/09/01 01:33:46;;;;;;;8.77;3.63;;;;;;;-145.67;100.00;66521.78;4923776;28;20517;-67
2022/09/01 01:36:35;;;;;;;7.32;4.15;;;;;;;-145.67;100.00;66521.78;4945375;28;20031;-68
2022/09/01 01:39:10;;;;;;;6.97;4.28;;;;;;;-145.67;100.00;66521.78;4923189;28;20054;-67
2022/09/01 01:41:44;;;;;;;8.18;3.85;;;;;;;-145.67;100.00;66521.78;4946137;28;20109;-67
2022/09/01 01:44:11;;;;;;;8.38;4.32;;;;;;;-145.67;100.00;66521.78;4946045;28;20046;-67
2022/09/01 01:46:42;;;;;;;8.57;4.32;;;;;;;-145.67;100.00;66521.78;4928569;28;20105;-67
2022/09/01 01:49:17;;;;;;;7.13;4.20;;;;;;;-145.67;100.00;66521.78;4928394;28;20091;-66
2022/09/01 01:51:44;;;;;;;7.53;4.07;;;;;;;-145.67;100.00;66521.78;4945460;28;20046;-66
2022/09/01 01:54:09;;;;;;;7.70;4.10;;;;;;;-145.67;100.00;66521.78;4946042;28;20039;-67
2022/09/01 01:56:40;;;;;;;6.13;3.97;;;;;;;-145.67;100.00;66521.78;4943725;28;20035;-67
2022/09/01 01:59:08;;;;;;;6.32;3.78;;;;;;;-145.67;100.00;66521.78;4944497;28;22241;-66
2022/09/01 02:01:34;;;;;;;7.47;3.92;;;;;;;-145.67;100.00;66521.78;4945627;28;20045;-67
2022/09/01 02:04:03;;;;;;;7.38;4.30;;;;;;;-145.67;100.00;66521.78;4945916;28;20027;-67
2022/09/01 02:06:32;;;;;;;9.73;4.57;;;;;;;-145.67;100.00;66521.78;4945657;28;20533;-68
2022/09/01 02:09:02;;;;;;;8.02;4.72;;;;;;;-145.67;100.00;66521.78;4924277;28;20067;-67
2022/09/01 02:11:28;;;;;;;8.15;4.38;;;;;;;-145.67;100.00;66521.78;4945702;28;20042;-67
2022/09/01 02:13:56;;;;;;;7.57;4.07;;;;;;;-145.67;100.00;66521.78;4946012;28;20030;-67
2022/09/01 02:16:26;;;;;;;11.40;4.60;;;;;;;-145.67;100.00;66521.78;4944793;28;20065;-66
2022/09/01 02:18:52;;;;;;;9.77;4.65;;;;;;;-145.67;100.00;66521.78;4943860;28;20552;-66
2022/09/01 02:21:21;;;;;;;9.02;4.55;;;;;;;-145.67;100.00;66521.78;4931330;28;20731;-66
2022/09/01 02:23:59;;;;;;;11.93;5.00;;;;;;;-145.67;100.00;66521.78;4945081;28;20086;-66
2022/09/01 02:26:30;;;;;;;11.00;4.82;;;;;;;-145.67;100.00;66521.78;4945112;28;20094;-67
2022/09/01 02:29:03;;;;;;;8.82;4.95;;;;;;;-145.67;100.00;66521.78;4927991;28;20035;-67
2022/09/01 02:31:30;;;;;;;8.60;4.65;;;;;;;-145.67;100.00;66521.78;4927090;28;20035;-67
2022/09/01 02:33:59;;;;;;;9.07;4.63;;;;;;;-145.67;100.00;66521.78;4926727;28;20137;-67
2022/09/01 02:36:25;;;;;;;10.20;4.50;;;;;;;-145.67;100.00;66521.78;4944404;28;20416;-66
2022/09/01 02:38:51;;;;;;;11.20;4.80;;;;;;;-145.67;100.00;66521.78;4943169;28;20055;-66
2022/09/01 02:41:25;;;;;;;9.38;5.07;;;;;;;-145.67;100.00;66521.78;4943707;28;20108;-66
2022/09/01 02:43:54;;;;;;;9.23;4.75;;;;;;;-145.67;100.00;66521.78;4944355;28;20038;-66
2022/09/01 02:46:22;;;;;;;9.43;5.07;;;;;;;-145.67;100.00;66521.78;4927512;28;20086;-67
2022/09/01 02:48:50;;;;;;;8.10;4.82;;;;;;;-145.67;100.00;66521.78;4928117;28;20035;-67
2022/09/01 02:51:17;;;;;;;9.45;5.30;;;;;;;-145.67;100.00;66521.78;4943205;28;20082;-67
2022/09/01 02:53:45;;;;;;;8.77;5.03;;;;;;;-145.67;100.00;66521.78;4943156;28;20838;-67
2022/09/01 02:56:13;;;;;;;9.50;5.40;;;;;;;-145.67;100.00;66521.78;4943801;28;20253;-68
2022/09/01 02:58:45;;;;;;;8.35;5.07;;;;;;;-145.67;100.00;66521.78;4915862;28;20051;-67
2022/09/01 03:01:19;;;;;;;9.00;5.47;;;;;;;-145.67;100.00;66521.78;4942825;28;20050;-66
2022/09/01 03:03:48;;;;;;;11.57;5.15;;;;;;;-145.67;100.00;66521.78;4943691;28;20054;-67
2022/09/01 03:06:17;;;;;;;10.05;5.10;;;;;;;-145.67;100.00;66521.78;4927516;28;20095;-67
2022/09/01 03:08:47;;;;;;;7.47;5.30;;;;;;;-145.67;100.00;66521.78;4931392;28;20045;-68
2022/09/01 03:11:12;;;;;;;10.15;5.00;;;;;;;-145.67;100.00;66521.78;4942828;28;20045;-67
2022/09/01 03:13:39;;;;;;;11.13;5.65;;;;;;;-145.67;100.00;66521.78;4944097;28;20074;-66
2022/09/01 03:16:06;;;;;;;9.48;5.30;;;;;;;-145.67;100.00;66521.78;4944217;28;20130;-70
2022/09/01 03:18:32;;;;;;;8.48;5.47;;;;;;;-145.67;100.00;66521.78;4944693;28;20121;-67
2022/09/01 03:20:58;;;;;;;7.28;5.40;;;;;;;-145.67;100.00;66521.78;4944037;28;20936;-67
2022/09/01 03:23:24;;;;;;;10.00;5.75;;;;;;;-145.67;100.00;66521.78;4942369;28;20039;-67
2022/09/01 03:25:50;;;;;;;8.50;5.45;;;;;;;-145.67;100.00;66521.78;4927889;28;20557;-67
2022/09/01 03:28:16;;;;;;;7.43;5.53;;;;;;;-145.67;100.00;66521.78;4915487;28;20101;-66
2022/09/01 03:30:53;;;;;;;9.63;6.10;;;;;;;-145.67;100.00;66521.78;4942709;28;20057;-67
2022/09/01 03:33:20;;;;;;;8.93;6.05;;;;;;;-145.67;100.00;66521.78;4942530;28;20077;-67
2022/09/01 03:35:46;;;;;;;8.43;5.30;;;;;;;-145.67;100.00;66521.78;4942941;28;20038;-66
2022/09/01 03:38:21;;;;;;;6.95;5.72;;;;;;;-145.67;100.00;66521.78;4937636;28;20047;-66
2022/09/01 03:40:51;;;;;;;7.03;5.70;;;;;;;-145.67;100.00;66521.78;4927778;28;20158;-67
2022/09/01 03:43:18;;;;;;;9.18;5.97;;;;;;;-145.67;100.00;66521.78;4944236;28;20035;-67
2022/09/01 03:45:47;;;;;;;9.93;5.97;;;;;;;-145.67;100.00;66521.78;4941722;28;20087;-67
2022/09/01 03:48:15;;;;;;;8.25;5.93;;;;;;;-145.67;100.00;66521.78;4943708;28;20121;-67
2022/09/01 03:50:44;;;;;;;9.38;5.88;;;;;;;-145.67;100.00;66521.78;4942530;28;20035;-69
2022/09/01 03:53:18;;;;;;;11.40;6.40;;;;;;;-145.67;100.00;66521.78;4926460;28;20637;-67
2022/09/01 03:55:46;;;;;;;9.88;6.32;;;;;;;-145.67;100.00;66521.78;4925203;28;20035;-68
2022/09/01 03:58:13;;;;;;;10.30;6.28;;;;;;;-145.67;100.00;66521.78;4922624;28;26200;-67
2022/09/01 04:00:45;;;;;;;10.43;6.05;;;;;;;-145.67;100.00;66521.78;4927530;28;20050;-67
2022/09/01 04:03:12;;;;;;;10.43;6.57;;;;;;;-145.67;100.00;66521.78;4942364;28;20058;-66
2022/09/01 04:05:41;;;;;;;8.18;6.40;;;;;;;-145.67;100.00;66521.78;4905882;28;20047;-67
2022/09/01 04:08:10;;;;;;;8.80;6.28;;;;;;;-145.67;100.00;66521.78;4940890;28;20038;-66
2022/09/01 04:10:43;;;;;;;9.98;6.40;;;;;;;-145.67;100.00;66521.78;4943040;28;20678;-66
2022/09/01 04:13:10;;;;;;;8.77;6.18;;;;;;;-145.67;100.00;66521.78;4942039;28;20065;-68
2022/09/01 04:15:37;;;;;;;10.05;6.20;;;;;;;-145.67;100.00;66521.78;4925419;28;20491;-68
2022/09/01 04:18:19;;;;;;;11.98;6.60;;;;;;;-145.67;100.00;66521.78;4936856;28;20055;-68
2022/09/01 04:20:48;;;;;;;;;;;;;;;-145.67;100.00;66521.78;4925695;28;20133;-66
2022/09/01 04:23:25;;;;;;;9.02;6.40;;;;;;;-145.67;100.00;66521.78;4941279;28;20342;-65
2022/09/01 04:26:07;;;;;;;10.15;6.55;;;;;;;-145.67;100.00;66521.78;4942398;28;20039;-68
2022/09/01 04:28:45;;;;;;;12.07;6.63;;;;;;;-145.67;100.00;66521.78;4921041;28;20871;-68
2022/09/01 04:31:18;;;;;;;11.18;6.40;;;;;;;-145.67;100.00;66521.78;4922251;28;20131;-67
2022/09/01 04:33:46;;;;;;;10.10;6.45;;;;;;;-145.67;100.00;66521.78;4941503;28;20035;-69
2022/09/01 04:36:24;;;;;;;8.98;7.10;;;;;;;-145.67;100.00;66521.78;4921195;28;20123;-68
2022/09/01 04:38:54;;;;;;;9.02;6.88;;;;;;;-145.67;100.00;66521.78;4924205;28;20055;-68
2022/09/01 04:41:30;;;;;;;8.85;6.10;;;;;;;-145.67;100.00;66521.78;4905740;28;20039;-68
2022/09/01 04:43:57;;;;;;;9.68;6.25;;;;;;;-145.67;100.00;66521.78;4921075;28;20085;-68
2022/09/01 04:46:28;;;;;;;15.20;7.05;;;;;;;-145.67;100.00;66521.78;4924900;28;20453;-68
2022/09/01 04:48:54;;;;;;;8.52;7.07;;;;;;;-145.67;100.00;66521.78;4939742;28;20169;-68
2022/09/01 04:51:21;;;;;;;11.23;6.88;;;;;;;-145.67;100.00;66521.78;4941937;28;20050;-68
2022/09/01 04:53:49;;;;;;;10.73;7.85;;;;;;;-145.67;100.00;66521.78;4919117;28;20027;-68
2022/09/01 04:56:21;;;;;;;10.85;7.80;;;;;;;-145.67;100.00;66521.78;4942085;28;20559;-69
2022/09/01 04:58:50;;;;;;;10.43;7.68;;;;;;;-145.67;100.00;66521.78;4919946;28;20053;-68
2022/09/01 05:01:19;;;;;;;13.00;7.57;;;;;;;-145.67;100.00;66521.78;4939849;28;20050;-68
2022/09/01 05:03:45;;;;;;;11.18;7.63;;;;;;;-145.67;100.00;66521.78;4939047;28;20099;-68
2022/09/01 05:06:18;;;;;;;8.80;7.50;;;;;;;-145.67;100.00;66521.78;4920862;28;20043;-68
2022/09/01 05:08:45;;;;;;;12.65;7.32;;;;;;;-145.67;100.00;66521.78;4940671;28;20027;-68
2022/09/01 05:11:11;;;;;;;9.02;6.88;;;;;;;-145.67;100.00;66521.78;4937102;28;20047;-68
2022/09/01 05:13:40;;;;;;;9.48;6.68;;;;;;;-145.67;100.00;66521.78;4942586;28;20117;-68
2022/09/01 05:16:11;;;;;;;11.57;6.95;;;;;;;-145.67;100.00;66521.78;4942152;28;20038;-68
2022/09/01 05:18:44;;;;;;;8.30;6.85;;;;;;;-145.67;100.00;66521.78;4941120;28;20076;-68
2022/09/01 05:21:13;;;;;;;8.85;6.95;;;;;;;-145.67;100.00;66521.78;4922735;28;20031;-68
2022/09/01 05:23:39;;;;;;;10.48;6.72;;;;;;;-145.67;100.00;66521.78;4942757;28;20601;-67
2022/09/01 05:26:13;;;;;;;8.27;6.30;;;;;;;-145.67;100.00;66521.78;4943209;28;20039;-68
2022/09/01 05:28:47;;;;;;;8.07;6.35;;;;;;;-145.67;100.00;66521.78;4942804;28;20170;-67
2022/09/01 05:31:13;;;;;;;8.52;6.47;;;;;;;-145.67;100.00;66521.78;4941935;28;20038;-65
2022/09/01 05:33:44;;;;;;;8.57;6.05;;;;;;;-145.67;100.00;66521.78;4930023;28;20039;-66
2022/09/01 05:36:11;;;;;;;9.35;6.25;;;;;;;-145.67;100.00;66521.78;4946456;28;20546;-66
2022/09/01 05:38:47;;;;;;;9.10;5.95;;;;;;;-145.67;100.00;66521.78;4943737;28;20054;-67
2022/09/01 05:41:14;;;;;;;7.05;6.25;;;;;;;-145.67;100.00;66521.78;4929411;28;20043;-67
2022/09/01 05:43:49;;;;;;;7.80;6.13;;;;;;;-145.67;100.00;66521.78;4923250;28;20050;-66
2022/09/01 05:46:17;;;;;;;8.30;6.28;;;;;;;-145.67;100.00;66521.78;4925354;28;20098;-67
2022/09/01 05:48:50;;;;;;;11.00;5.82;;;;;;;-145.67;100.00;66521.78;4946315;28;20027;-66
2022/09/01 05:51:18;;;;;;;9.80;6.10;;;;;;;-145.67;100.00;66521.78;4945729;28;20839;-66
2022/09/01 05:53:50;;;;;;;9.75;6.45;;;;;;;-145.67;100.00;66521.78;4922356;28;20039;-66
2022/09/01 05:56:18;;;;;;;7.47;5.82;;;;;;;-145.67;100.00;66521.78;4924947;28;21068;-66
2022/09/01 05:58:46;;;;;;;8.30;5.57;;;;;;;-145.67;100.00;66521.78;4945849;28;20136;-66
2022/09/01 06:01:23;;;;;;;10.93;5.80;;;;;;;-145.67;100.00;66521.78;4927583;28;20042;-67
2022/09/01 06:03:53;;;;;;;6.38;5.50;;;;;;;-145.67;100.00;66521.78;4943163;28;20038;-66
2022/09/01 06:06:22;;;;;;;7.28;5.47;;;;;;;-145.67;100.00;66521.78;4943168;28;20043;-67
2022/09/01 06:08:48;;;;;;;7.22;5.63;;;;;;;-145.67;100.00;66521.78;4926984;28;20986;-66
2022/09/01 06:11:16;;;;;;;7.95;5.00;;;;;;;-145.67;100.00;66521.78;4912395;28;20041;-65
2022/09/01 06:13:46;;;;;;;6.82;5.13;;;;;;;-145.67;100.00;66521.78;4945006;28;20035;-66
2022/09/01 06:16:13;;;;;;;9.02;5.15;;;;;;;-145.67;100.00;66521.78;4944106;28;21060;-66
2022/09/01 06:18:39;;;;;;;9.02;4.80;;;;;;;-145.67;100.00;66521.78;4943944;28;20052;-65
2022/09/01 06:21:13;;;;;;;7.55;4.60;;;;;;;-145.67;100.00;66521.78;4944344;28;20037;-65
2022/09/01 06:23:44;;;;;;;6.15;4.78;;;;;;;-145.67;100.00;66521.78;4944944;28;20128;-67
2022/09/01 06:26:22;;;;;;;7.22;4.75;;;;;;;-145.67;100.00;66521.78;4942514;28;20118;-65
2022/09/01 06:28:53;;;;;;;8.05;4.47;;;;;;;-145.67;100.00;66521.78;4927167;28;20031;-66
2022/09/01 06:31:23;;;;;;;8.43;4.10;;;;;;;-145.67;100.00;66521.78;4926522;28;20031;-66
2022/09/01 06:33:52;;;;;;;7.63;4.40;;;;;;;-145.67;100.00;66521.78;4920346;28;20050;-66
2022/09/01 06:36:22;;;;;;;5.88;4.25;;;;;;;-145.67;100.00;66521.78;4943550;28;20105;-66
2022/09/01 06:38:51;;;;;;;4.93;4.13;;;;;;;-145.67;100.00;66521.78;4920301;28;20121;-67
2022/09/01 06:41:18;;;;;;;5.95;3.60;;;;;;;-145.67;100.00;66521.78;4909953;28;20436;-67
2022/09/01 06:43:48;;;;;;;5.22;3.78;;;;;;;-145.67;100.00;66521.78;4924882;28;20049;-66
2022/09/01 06:46:20;;;;;;;4.97;3.50;;;;;;;-145.67;100.00;66521.78;4942708;28;20709;-66
2022/09/01 06:48:46;;;;;;;6.82;3.88;;;;;;;-145.67;100.00;66521.78;4942707;28;20511;-65
2022/09/01 06:51:19;;;;;;;5.80;3.85;;;;;;;-145.67;100.00;66521.78;4943261;28;20388;-66
2022/09/01 06:53:49;;;;;;;4.45;3.80;;;;;;;-145.67;100.00;66521.78;4942447;28;20043;-65
2022/09/01 06:56:17;;;;;;;7.15;3.50;;;;;;;-145.67;100.00;66521.78;4941965;28;20392;-66
2022/09/01 06:58:47;;;;;;;4.97;3.70;;;;;;;-145.67;100.00;66521.78;4937098;28;20134;-67
2022/09/01 07:01:15;;;;;;;5.78;3.30;;;;;;;-145.67;100.00;66521.78;4943891;28;20143;-67
2022/09/01 07:03:47;;;;;;;6.32;2.85;;;;;;;-145.67;100.00;66521.78;4941382;28;20167;-66
2022/09/01 07:06:14;;;;;;;7.03;2.70;;;;;;;-145.67;100.00;66521.78;4942285;28;20105;-67
2022/09/01 07:08:40;;;;;;;4.80;2.30;;;;;;;-145.67;100.00;66521.78;4943585;28;20042;-66
2022/09/01 07:11:16;;;;;;;4.03;2.10;;;;;;;-145.67;100.00;66521.78;4920214;28;20105;-67
2022/09/01 07:13:44;;;;;;;7.25;2.45;;;;;;;-145.67;100.00;66521.78;4935908;28;20496;-67
2022/09/01 07:16:20;;;;;;;8.82;2.13;;;;;;;-145.67;100.00;66521.78;4940945;28;20041;-66
2022/09/01 07:18:46;;;;;;;8.05;2.15;;;;;;;-145.67;100.00;66521.78;4921622;28;20055;-65
2022/09/01 07:21:12;;;;;;;4.25;1.60;;;;;;;-145.67;100.00;66521.78;4942356;28;20054;-66
2022/09/01 07:23:37;;;;;;;5.65;1.92;;;;;;;-145.67;100.00;66521.78;4925250;28;20137;-65
2022/09/01 07:26:06;;;;;;;4.68;1.65;;;;;;;-145.67;100.00;66521.78;4940861;28;20037;-67
2022/09/01 07:28:34;;;;;;;;;;;;;;;-145.67;100.00;66521.78;4921331;28;20784;-67
2022/09/01 07:31:00;;;;;;;4.65;1.50;;;;;;;-145.67;100.00;66521.78;4941295;28;19921;-67
2022/09/01 07:33:26;;;;;;;5.00;1.58;;;;;;;-145.67;100.00;66521.78;4943652;28;20301;-64
2022/09/01 07:35:54;;;;;;;3.88;1.40;;;;;;;-145.67;100.00;66521.78;4943081;28;20038;-67
2022/09/01 07:38:20;;;;;;;3.03;1.23;;;;;;;-145.67;100.00;66521.78;4944035;28;20051;-67
2022/09/01 07:40:47;;;;;;;4.20;1.30;;;;;;;-145.67;100.00;66521.78;4944607;28;20046;-65
2022/09/01 07:43:23;;;;;;;1.90;1.10;;;;;;;-145.67;100.00;66521.78;4926576;28;20130;-63
2022/09/01 07:45:54;;;;;;;3.15;1.50;;;;;;;-145.67;100.00;66521.78;4930483;28;20039;-64
2022/09/01 07:48:20;;;;;;;;;;;;;;;-145.67;100.00;66521.78;4944495;28;20077;-65
2022/09/01 07:50:48;;;;;;;2.05;1.00;;;;;;;-145.67;100.00;66521.78;4909088;28;20567;-65
2022/09/01 07:53:17;;;;;;;5.45;1.30;;;;;;;-145.67;100.00;66521.78;4922747;28;20058;-64
2022/09/01 07:55:45;;;;;;;3.03;1.25;;;;;;;-145.67;100.00;66521.78;4941023;28;20113;-64
2022/09/01 07:58:12;;;;;;;3.95;1.20;;;;;;;-145.67;100.00;66521.78;4943175;28;20043;-64
2022/09/01 08:00:39;;;;;;;1.60;1.10;;;;;;;-145.67;100.00;66521.78;4942171;28;20602;-66
2022/09/01 08:03:04;;;;;;;2.10;1.10;;;;;;;-145.67;100.00;66521.78;4922041;28;20039;-65
2022/09/01 08:05:30;;;;;;;5.10;1.20;;;;;;;-145.67;100.00;66521.78;4941286;28;20042;-64
2022/09/01 08:07:58;;;;;;;3.38;1.15;;;;;;;-145.67;100.00;66521.78;4940164;28;22241;-64
2022/09/01 08:10:24;;;;;;;2.65;1.17;;;;;;;-145.67;100.00;66521.78;4940715;28;20085;-63
2022/09/01 08:12:49;;;;;;;3.60;1.30;;;;;;;-145.67;100.00;66521.78;4939122;28;20492;-64
2022/09/01 08:15:16;;;;;;;7.78;1.48;;;;;;;-145.67;100.00;66521.78;4938195;28;20108;-63
2022/09/01 08:17:41;;;;;;;2.22;1.10;;;;;;;-145.67;100.00;66521.78;4926365;28;20046;-62
2022/09/01 08:20:08;;;;;;;5.07;1.30;;;;;;;-145.67;100.00;66521.78;4924434;28;20039;-64
2022/09/01 08:22:36;;;;;;;3.03;1.00;;;;;;;-145.67;100.00;66521.78;4943648;28;20684;-64
2022/09/01 08:25:05;;;;;;;4.47;1.30;;;;;;;-145.67;100.00;66521.78;4926813;28;20101;-63
2022/09/01 08:27:40;;;;;;;4.78;1.10;;;;;;;-145.67;100.00;66521.78;4940730;28;20125;-63
2022/09/01 08:30:09;;;;;;;3.60;1.00;;;;;;;-145.67;100.00;66521.78;4942893;28;20420;-64
2022/09/01 08:32:40;;;;;;;2.70;1.10;;;;;;;-145.67;100.00;66521.78;4940019;28;20058;-64
2022/09/01 08:35:08;;;;;;;3.67;1.02;;;;;;;-145.67;100.00;66521.78;4919809;28;20038;-64
2022/09/01 08:37:33;;;;;;;3.17;0.90;;;;;;;-145.67;100.00;66521.78;4924379;28;20066;-64
2022/09/01 08:40:02;;;;;;;2.40;1.00;;;;;;;-145.67;100.00;66521.78;4925590;28;20049;-66
2022/09/01 08:42:53;;;;;;;1.80;0.90;;;;;;;-145.67;100.00;66521.78;4921627;28;20149;-66
2022/09/01 08:45:27;;;;;;;3.03;1.17;;;;;;;-145.67;100.00;66521.78;4942404;28;20043;-66
2022/09/01 08:47:59;;;;;;;4.78;1.10;;;;;;;-145.67;100.00;66521.78;4942474;28;20134;-64
2022/09/01 08:50:24;;;;;;;4.00;1.10;;;;;;;-145.67;100.00;66521.78;4938523;28;20043;-65
2022/09/01 08:53:02;;;;;;;3.72;1.05;;;;;;;-145.67;100.00;66521.78;4942533;28;20057;-65
2022/09/01 08:55:38;;;;;;;4.00;1.30;;;;;;;-145.67;100.00;66521.78;4923908;28;20074;-65
2022/09/01 08:58:05;;;;;;;4.70;1.33;;;;;;;-145.67;100.00;66521.78;4925506;28;20038;-65
2022/09/01 09:00:38;;;;;;;3.28;1.10;;;;;;;-145.67;100.00;66521.78;4941621;28;20936;-68
2022/09/01 09:03:12;;;;;;;2.17;1.13;;;;;;;-145.67;100.00;66521.78;4922388;28;20746;-64
2022/09/01 09:06:05;;;;;;;4.68;1.00;;;;;;;-145.67;100.00;66521.78;4942796;28;20043;-65
2022/09/01 09:08:50;;;;;;;4.00;1.20;;;;;;;-145.67;100.00;66521.78;4944987;28;20592;-65
2022/09/01 09:11:25;;;;;;;2.08;0.90;;;;;;;-145.67;100.00;66521.78;4946148;28;20046;-65
2022/09/01 09:14:12;;;;;;;1.85;0.98;;;;;;;-145.67;100.00;66521.78;4929111;28;20045;-65
2022/09/01 09:16:46;;;;;;;2.67;1.00;;;;;;;-145.67;100.00;66521.78;4930295;28;20035;-67
2022/09/01 09:19:24;;;;;;;4.00;1.10;;;;;;;-145.67;100.00;66521.78;4928855;28;20054;-65
2022/09/01 09:21:53;;;;;;;4.93;1.10;;;;;;;-145.67;100.00;66521.78;4947077;28;20552;-66
2022/09/01 09:24:45;;;;;;;3.67;1.00;;;;;;;-145.67;100.00;66521.78;4943180;28;20510;-66
2022/09/01 09:27:22;;;;;;;4.25;1.00;;;;;;;-145.67;100.00;66521.78;4927631;28;20045;-64
2022/09/01 09:29:50;;;;;;;4.00;0.90;;;;;;;-145.67;100.00;66521.78;4928231;28;20035;-66
2022/09/01 09:32:15;;;;;;;4.82;1.40;;;;;;;-145.67;100.00;66521.78;4925058;28;20772;-66
2022/09/01 09:34:41;;;;;;;2.00;1.00;;;;;;;-145.67;100.00;66521.78;4925235;28;20041;-67
2022/09/01 09:37:23;;;;;;;5.30;1.10;;;;;;;-145.67;100.00;66521.78;4925502;28;20037;-67
2022/09/01 09:40:01;;;;;;;3.03;1.00;;;;;;;-145.67;100.00;66521.78;4943367;28;20047;-65
2022/09/01 09:42:27;;;;;;;2.25;0.90;;;;;;;-145.67;100.00;66521.78;4945366;28;20045;-65
2022/09/01 09:44:54;;;;;;;3.95;0.80;;;;;;;-145.67;100.00;66521.78;4945314;28;20379;-67
2022/09/01 09:47:41;;;;;;;2.75;0.90;;;;;;;-145.67;100.00;66521.78;4942739;28;20049;-71
2022/09/01 09:50:16;;;;;;;1.98;0.90;;;;;;;-145.67;100.00;66521.78;4929475;28;20358;-65
2022/09/01 09:52:43;;;;;;;2.85;0.90;;;;;;;-145.67;100.00;66521.78;4944348;28;20356;-64
2022/09/01 09:55:28;;;;;;;2.05;0.90;;;;;;;-145.67;100.00;66521.78;4946108;28;20047;-65
2022/09/01 09:57:59;;;;;;;1.88;0.77;;;;;;;-145.67;100.00;66521.78;4943173;28;20053;-65
2022/09/01 10:00:32;;;;;;;4.10;0.98;;;;;;;-145.67;100.00;66521.78;4941829;28;20065;-65
2022/09/01 10:03:07;;;;;;;4.07;1.00;;;;;;;-145.67;100.00;66521.78;4922036;28;20101;-65
2022/09/01 10:05:42;;;;;;;3.30;0.90;;;;;;;-145.67;100.00;66521.78;4912106;28;20042;-66
2022/09/01 10:08:43;;;;;;;3.67;0.90;;;;;;;-145.67;100.00;66521.78;4929438;28;20080;-66
2022/09/01 10:11:10;;;;;;;2.97;0.80;;;;;;;-145.67;100.00;66521.78;4942691;28;20090;-64
2022/09/01 10:13:35;;;;;;;3.45;1.10;;;;;;;-145.67;100.00;66521.78;4925497;28;20291;-68
2022/09/01 10:16:05;;;;;;;2.60;0.80;;;;;;;-145.67;100.00;66521.78;4944958;28;20038;-68
2022/09/01 10:18:39;;;;;;;4.82;0.90;;;;;;;-145.67;100.00;66521.78;4944126;28;20047;-68
2022/09/01 10:21:12;;;;;;;4.25;0.95;;;;;;;-145.67;100.00;66521.78;4926874;28;20073;-64
2022/09/01 10:23:40;;;;;;;4.65;0.88;;;;;;;-145.67;100.00;66521.78;4942562;28;20043;-66
2022/09/01 10:26:10;;;;;;;2.15;1.30;;;;;;;-145.67;100.00;66521.78;4904836;28;20488;-66
2022/09/01 10:28:59;;;;;;;6.38;0.82;;;;;;;-145.67;100.00;66521.78;4922724;28;20454;-66
2022/09/01 10:31:25;;;;;;;2.65;0.90;;;;;;;-145.67;100.00;66521.78;4939408;28;20105;-65
2022/09/01 10:33:51;;;;;;;2.22;1.02;;;;;;;-145.67;100.00;66521.78;4943137;28;20052;-66
2022/09/01 10:36:21;;;;;;;3.22;0.73;;;;;;;-145.67;100.00;66521.78;4926834;28;20031;-68
2022/09/01 10:38:47;;;;;;;3.47;0.90;;;;;;;-145.67;100.00;66521.78;4943410;28;20156;-69
2022/09/01 10:41:47;;;;;;;4.20;1.00;;;;;;;-145.67;100.00;66521.78;4944282;28;20130;-66
2022/09/01 10:44:22;;;;;;;2.33;0.90;;;;;;;-145.67;100.00;66521.78;4944582;28;20046;-68
2022/09/01 10:46:49;;;;;;;2.55;1.10;;;;;;;-145.67;100.00;66521.78;4926917;28;20125;-68
2022/09/01 10:49:56;;;;;;;3.08;1.02;;;;;;;-145.67;100.00;66521.78;4942780;28;20225;-66
2022/09/01 10:52:55;;;;;;;3.10;0.95;;;;;;;-145.67;100.00;66521.78;4944128;28;20051;-67
2022/09/01 10:55:22;;;;;;;3.33;0.80;;;;;;;-145.67;100.00;66521.78;4920412;28;20042;-66
2022/09/01 10:58:06;;;;;;;3.42;0.80;;;;;;;-145.67;100.00;66521.78;4944332;28;20035;-71
2022/09/01 11:00:34;;;;;;;6.70;1.05;;;;;;;-145.67;100.00;66521.78;4943342;28;20125;-69
2022/09/01 11:03:23;;;;;;;2.65;0.90;;;;;;;-145.67;100.00;66521.78;4945172;28;20041;-69
2022/09/01 11:05:54;;;;;;;3.03;0.85;;;;;;;-145.67;100.00;66521.78;4943585;28;20043;-67
2022/09/01 11:08:24;;;;;;;;;;;;;;;-145.67;100.00;66521.78;4944925;28;20035;-67
2022/09/01 11:11:14;;;;;;;3.70;1.00;;;;;;;-145.67;100.00;66521.78;4936666;28;19963;-67
2022/09/01 11:13:48;;;;;;;2.35;1.10;;;;;;;-145.67;100.00;66521.78;4942847;28;20042;-66
2022/09/01 11:16:36;;;;;;;4.95;1.02;;;;;;;-145.67;100.00;66521.78;4927076;28;20039;-68
2022/09/01 11:19:20;;;;;;;3.72;0.90;;;;;;;-145.67;100.00;66521.78;4942783;28;20156;-68
2022/09/01 11:21:48;;;;;;;3.90;1.00;;;;;;;-145.67;100.00;66521.78;4945159;28;20117;-67
2022/09/01 11:24:38;;;;;;;3.95;0.90;;;;;;;-145.67;100.00;66521.78;4941785;28;20027;-67
2022/09/01 11:27:05;;;;;;;5.18;1.00;;;;;;;-145.67;100.00;66521.78;4944018;28;20745;-70
2022/09/01 11:29:54;;;;;;;3.95;1.10;;;;;;;-145.67;100.00;66521.78;4940873;28;20057;-67